Time;durP1;ratioP1;P1;durP2;ratioP2;P2;SDS_P1;SDS_P2;PMS_P1;PMS_P2;Temp;Humidity;BMP_temperature;BMP_pressure;BME280_temperature;BME280_humidity;BME280_pressure;Samples;Min_cycle;Max_cycle;Signal;HPM_P1;HPM_P2
2022/08/10 00:00:59;;;;;;;;;9.50;9.00;;;;;26.52;34.51;100586.78;146636;590;45016;-83
2022/08/10 00:03:57;;;;;;;;;8.00;8.00;;;;;26.48;33.50;100590.38;146619;655;45021;-79
2022/08/10 00:06:49;;;;;;;;;9.25;7.25;;;;;26.51;34.19;100585.00;146615;563;45912;-77
2022/08/10 00:09:47;;;;;;;;;8.50;7.00;;;;;26.54;34.64;100584.97;146618;668;45021;-75
2022/08/10 00:12:44;;;;;;;;;7.00;6.25;;;;;26.56;34.27;100590.25;146616;665;45913;-74
2022/08/10 00:15:38;;;;;;;;;10.25;7.75;;;;;26.53;34.17;100585.00;146620;563;45020;-73
2022/08/10 00:18:31;;;;;;;;;8.50;6.75;;;;;26.51;33.83;100584.12;146614;598;45913;-74
2022/08/10 00:21:26;;;;;;;;;4.75;4.75;;;;;26.46;34.35;100579.75;146610;653;45020;-77
2022/08/10 00:24:23;;;;;;;;;6.00;6.00;;;;;26.39;34.27;100590.53;146615;569;45913;-77
2022/08/10 00:27:15;;;;;;;;;8.75;8.00;;;;;26.33;34.55;100577.31;146620;586;46010;-73
2022/08/10 00:30:14;;;;;;;;;6.25;6.00;;;;;26.32;34.11;100578.22;146613;569;46016;-74
2022/08/10 00:33:06;;;;;;;;;7.00;6.75;;;;;26.34;34.59;100573.75;146620;575;46010;-77
2022/08/10 00:36:01;;;;;;;;;5.00;4.50;;;;;26.33;34.55;100577.31;146614;596;46012;-80
2022/08/10 00:38:57;;;;;;;;;7.00;6.75;;;;;26.34;34.64;100573.75;146620;579;45021;-74
2022/08/10 00:41:59;;;;;;;;;;;;;;;;;;;;;
2022/08/10 00:45:02;;;;;;;;;7.50;7.00;;;;;26.42;34.33;100575.41;146622;612;45022;-76
2022/08/10 00:48:06;;;;;;;;;7.00;5.25;;;;;26.45;34.53;100578.00;146613;620;45912;-76
2022/08/10 00:51:12;;;;;;;;;6.00;6.00;;;;;26.40;34.12;100576.31;146611;687;46010;-75
2022/08/10 00:54:06;;;;;;;;;6.50;5.75;;;;;26.36;34.50;100572.84;146615;577;45912;-78
2022/08/10 00:57:20;;;;;;;;;7.25;6.50;;;;;26.34;34.66;100573.75;146620;632;45022;-80
2022/08/10 01:00:18;;;;;;;;;7.00;5.00;;;;;26.34;34.26;100571.09;146614;731;46012;-83
2022/08/10 01:03:12;;;;;;;;;6.00;5.75;;;;;26.34;34.40;100579.06;146620;698;45031;-82
2022/08/10 01:06:39;;;;;;;;;6.50;5.50;;;;;26.40;34.12;100579.84;146615;729;45912;-80
2022/08/10 01:10:01;;;;;;;;;6.50;6.50;;;;;26.46;33.83;100573.56;146621;567;45021;-79
2022/08/10 01:13:50;;;;;;;;;9.25;8.00;;;;;26.49;33.65;100577.06;146615;574;45909;-75
2022/08/10 01:16:59;;;;;;;;;7.25;6.00;;;;;26.48;34.37;100582.41;146622;565;45021;-74
2022/08/10 01:20:34;;;;;;;;;6.50;6.50;;;;;26.48;34.30;100579.75;146613;564;45911;-81
2022/08/10 01:24:06;;;;;;;;;6.00;6.00;;;;;25.57;34.01;100426.13;146609;617;45021;-79
2022/08/10 01:27:40;;;;;;;;;7.00;6.00;;;;;26.43;33.94;100586.91;146613;607;46012;-80
2022/08/10 01:30:35;;;;;;;;;8.75;7.50;;;;;26.42;33.95;100588.69;146618;611;46010;-80
2022/08/10 01:33:59;;;;;;;;;5.50;5.50;;;;;25.92;34.17;100513.28;146616;674;45912;-80
2022/08/10 01:37:03;;;;;;;;;8.00;8.00;;;;;26.32;33.79;100592.38;146620;570;45020;-80
2022/08/10 01:40:02;;;;;;;;;7.00;5.00;;;;;26.27;34.29;100592.47;146613;570;46013;-79
2022/08/10 01:43:03;;;;;;;;;8.00;7.75;;;;;26.24;34.32;100596.94;146620;591;45020;-80
2022/08/10 01:46:02;;;;;;;;;7.25;5.50;;;;;26.20;34.27;100600.53;146615;678;45912;-80
2022/08/10 01:49:10;;;;;;;;;6.00;6.00;;;;;26.17;34.20;100598.81;146620;649;45050;-81
2022/08/10 01:52:11;;;;;;;;;5.50;5.50;;;;;26.11;34.31;100593.59;146614;585;46012;-80
2022/08/10 01:55:14;;;;;;;;;8.00;7.50;;;;;26.08;34.47;100588.34;146606;719;46021;-77
2022/08/10 01:58:13;;;;;;;;;7.00;7.00;;;;;26.05;34.51;100587.50;146613;578;45911;-77
2022/08/10 02:01:18;;;;;;;;;5.50;5.50;;;;;26.04;34.56;100589.25;146619;573;45021;-77
2022/08/10 02:04:19;;;;;;;;;7.00;6.75;;;;;26.02;34.33;100583.09;146615;626;45912;-79
2022/08/10 02:07:27;;;;;;;;;8.00;7.00;;;;;25.97;34.45;100583.16;146620;576;45020;-77
2022/08/10 02:10:35;;;;;;;;;8.50;6.75;;;;;25.98;34.55;100590.25;146614;578;46012;-78
2022/08/10 02:13:43;;;;;;;;;7.00;5.75;;;;;25.98;34.20;100581.38;146619;705;46010;-76
2022/08/10 02:16:39;;;;;;;;;7.75;7.00;;;;;25.97;34.26;100584.94;146614;606;45915;-78
2022/08/10 02:19:53;;;;;;;;;6.00;6.00;;;;;25.95;34.45;100578.75;146620;618;45020;-77
2022/08/10 02:23:01;;;;;;;;;6.00;6.00;;;;;25.93;35.15;100583.22;146614;629;46012;-77
2022/08/10 02:26:07;;;;;;;;;6.25;6.25;;;;;25.93;34.49;100583.22;146607;570;45021;-79
2022/08/10 02:29:01;;;;;;;;;9.00;7.25;;;;;25.95;34.56;100581.41;146616;624;46012;-77
2022/08/10 02:31:58;;;;;;;;;5.00;5.00;;;;;26.00;34.92;100590.22;146618;601;45021;-76
2022/08/10 02:35:01;;;;;;;;;5.00;5.00;;;;;26.03;34.65;100584.84;146614;571;45914;-77
2022/08/10 02:37:59;;;;;;;;;6.50;5.50;;;;;26.07;33.98;100588.34;146619;642;45021;-78
2022/08/10 02:41:24;;;;;;;;;;;;;;;;;;;;;
2022/08/10 02:45:15;;;;;;;;;7.50;7.50;;;;;25.22;33.95;100418.69;146620;635;45022;-81
2022/08/10 02:48:52;;;;;;;;;6.75;6.00;;;;;26.12;33.87;100582.06;146616;580;46012;-77
2022/08/10 02:52:01;;;;;;;;;9.00;7.00;;;;;26.09;33.88;100589.19;146620;570;45020;-74
2022/08/10 02:55:06;;;;;;;;;6.00;5.00;;;;;26.12;34.08;100595.34;146615;693;45915;-74
2022/08/10 02:58:02;;;;;;;;;5.00;5.00;;;;;26.23;34.39;100595.16;146607;581;45020;-76
2022/08/10 03:01:00;;;;;;;;;7.00;7.00;;;;;26.37;34.16;100605.59;146614;719;45915;-76
2022/08/10 03:04:17;;;;;;;;;7.50;7.50;;;;;26.10;34.22;100532.50;146619;563;45021;-75
2022/08/10 03:07:23;;;;;;;;;6.00;6.00;;;;;26.61;33.87;100607.03;146613;618;45914;-76
2022/08/10 03:10:38;;;;;;;;;7.25;6.50;;;;;26.70;33.88;100613.06;146619;570;46010;-76
2022/08/10 03:13:42;;;;;;;;;6.75;6.75;;;;;26.77;33.99;100607.66;146615;656;45914;-77
2022/08/10 03:16:37;;;;;;;;;6.00;6.00;;;;;26.83;33.83;100615.53;146620;573;45021;-76
2022/08/10 03:19:50;;;;;;;;;9.25;8.50;;;;;26.90;33.79;100617.16;146613;583;45914;-75
2022/08/10 03:22:53;;;;;;;;;6.75;6.00;;;;;26.96;34.06;100617.06;146620;585;45021;-75
2022/08/10 03:25:55;;;;;;;;;9.75;8.25;;;;;26.99;33.84;100619.66;146616;570;45915;-75
2022/08/10 03:29:06;;;;;;;;;7.75;7.75;;;;;27.03;33.91;100618.69;146606;617;46014;-76
2022/08/10 03:32:01;;;;;;;;;6.75;6.75;;;;;26.99;33.68;100622.31;146615;577;46013;-74
2022/08/10 03:34:59;;;;;;;;;5.75;5.75;;;;;26.97;33.98;100621.47;146621;596;45020;-76
2022/08/10 03:37:59;;;;;;;;;6.50;6.50;;;;;26.95;33.68;100628.62;146615;606;45912;-76
2022/08/10 03:40:59;;;;;;;;;7.75;5.50;;;;;26.94;34.05;100624.19;146618;569;46020;-74
2022/08/10 03:44:00;;;;;;;;;10.00;8.25;;;;;26.91;34.13;100632.22;146613;685;45912;-77
2022/08/10 03:46:58;;;;;;;;;11.50;8.25;;;;;26.86;34.24;100631.44;146619;571;45021;-77
2022/08/10 03:50:17;;;;;;;;;5.25;5.25;;;;;25.95;34.11;100493.75;146615;563;45912;-75
2022/08/10 03:53:13;;;;;;;;;10.50;7.25;;;;;26.66;34.24;100642.38;146619;588;45021;-76
2022/08/10 03:56:11;;;;;;;;;9.75;6.50;;;;;26.60;34.97;100639.81;146613;565;45912;-76
2022/08/10 03:59:14;;;;;;;;;8.50;7.25;;;;;26.58;35.12;100637.22;146606;578;46010;-73
2022/08/10 04:02:12;;;;;;;;;16.50;13.50;;;;;26.61;34.96;100642.47;146614;648;46012;-75
2022/08/10 04:05:04;;;;;;;;;7.00;7.00;;;;;26.68;35.17;100637.94;146612;728;45020;-74
2022/08/10 04:08:02;;;;;;;;;11.75;9.00;;;;;26.74;35.39;100643.16;146610;569;45912;-74
2022/08/10 04:11:03;;;;;;;;;9.50;7.75;;;;;26.77;35.50;100639.56;146621;585;45020;-73
2022/08/10 04:14:08;;;;;;;;;12.25;8.75;;;;;26.84;35.36;100649.19;146615;661;45912;-73
2022/08/10 04:17:10;;;;;;;;;7.75;7.50;;;;;26.89;34.72;100653.53;146620;606;45021;-74
2022/08/10 04:20:06;;;;;;;;;6.25;5.25;;;;;26.94;34.88;100654.31;146615;579;45914;-76
2022/08/10 04:23:04;;;;;;;;;12.00;9.00;;;;;27.03;35.80;100663.06;146620;570;45021;-76
2022/08/10 04:25:59;;;;;;;;;8.25;7.75;;;;;27.04;35.04;100667.47;146614;626;45914;-76
2022/08/10 04:28:55;;;;;;;;;11.25;8.75;;;;;26.99;35.08;100664.03;146609;602;45020;-78
2022/08/10 04:32:13;;;;;;;;;9.25;8.00;;;;;26.97;35.34;100673.81;146616;606;46017;-76
2022/08/10 04:35:21;;;;;;;;;10.25;8.75;;;;;27.04;35.33;100678.09;146618;628;46014;-77
2022/08/10 04:38:17;;;;;;;;;6.75;5.50;;;;;27.15;36.30;100673.53;146615;647;45915;-73
2022/08/10 04:41:16;;;;;;;;;8.50;8.50;;;;;27.28;36.48;100677.72;146619;611;45020;-74
2022/08/10 04:44:16;;;;;;;;;8.50;8.50;;;;;27.45;36.24;100669.44;146608;613;46012;-82
2022/08/10 04:47:12;;;;;;;;;9.00;9.00;;;;;27.60;36.82;100666.47;146621;582;45021;-72
2022/08/10 04:50:04;;;;;;;;;8.75;7.00;;;;;27.79;37.36;100675.00;146614;573;45914;-74
2022/08/10 04:52:59;;;;;;;;;7.75;7.50;;;;;27.97;37.00;100678.16;146619;574;46010;-72
2022/08/10 04:56:13;;;;;;;;;;;;;;;;;;;;;
2022/08/10 04:59:23;;;;;;;;;10.75;10.00;;;;;28.40;36.69;100678.13;146610;592;45021;-73
2022/08/10 05:02:24;;;;;;;;;9.25;8.75;;;;;28.60;35.99;100671.44;146614;563;45915;-72
2022/08/10 05:05:34;;;;;;;;;7.50;7.50;;;;;28.81;36.06;100670.91;146624;612;45020;-73
2022/08/10 05:08:32;;;;;;;;;9.00;7.50;;;;;29.06;37.20;100681.00;146619;620;45915;-74
2022/08/10 05:11:31;;;;;;;;;11.00;9.50;;;;;29.31;36.50;100683.91;146621;609;47010;-74
2022/08/10 05:14:26;;;;;;;;;11.00;9.50;;;;;29.56;36.05;100682.31;146618;658;45913;-73
2022/08/10 05:17:21;;;;;;;;;12.50;8.75;;;;;29.74;35.94;100682.75;146621;591;46010;-74
2022/08/10 05:20:39;;;;;;;;;8.50;8.50;;;;;29.88;34.48;100678.78;146620;652;45912;-73
2022/08/10 05:23:43;;;;;;;;;8.25;7.25;;;;;29.99;35.26;100689.13;146624;578;45021;-74
2022/08/10 05:26:48;;;;;;;;;11.00;9.25;;;;;30.19;34.18;100687.66;146615;649;46912;-73
2022/08/10 05:29:54;;;;;;;;;;;;;;;;;;;;;
2022/08/10 05:32:52;;;;;;;;;9.00;8.00;;;;;30.39;33.43;100687.97;146614;571;45910;-74
2022/08/10 05:35:46;;;;;;;;;9.00;7.25;;;;;30.47;33.71;100685.03;146624;641;45020;-73
2022/08/10 05:38:55;;;;;;;;;8.75;8.50;;;;;30.59;33.29;100692.66;146613;573;46013;-73
2022/08/10 05:42:01;;;;;;;;;10.50;9.50;;;;;30.65;32.83;100689.78;146622;593;45020;-72
2022/08/10 05:44:56;;;;;;;;;11.00;9.50;;;;;30.36;32.91;100634.56;146614;611;46016;-73
2022/08/10 05:48:08;;;;;;;;;11.25;10.00;;;;;30.36;32.57;100627.41;146622;564;45020;-73
2022/08/10 05:51:03;;;;;;;;;13.50;10.75;;;;;30.84;32.58;100698.13;146614;677;45910;-72
2022/08/10 05:54:14;;;;;;;;;11.50;11.00;;;;;30.89;32.18;100687.28;146623;613;45021;-71
2022/08/10 05:57:16;;;;;;;;;11.00;9.75;;;;;30.97;32.69;100693.25;146617;584;46012;-72
2022/08/10 06:00:48;;;;;;;;;;;;;;;;;;;;;
2022/08/10 06:04:04;;;;;;;;;8.75;8.25;;;;;31.22;31.64;100682.56;146635;607;45910;-75
2022/08/10 06:07:02;;;;;;;;;10.25;8.75;;;;;31.30;31.41;100684.03;146639;570;44021;-77
2022/08/10 06:10:10;;;;;;;;;10.50;9.00;;;;;30.99;31.53;100621.75;146635;586;45912;-75
2022/08/10 06:16:27;;;;;;;;;8.75;8.50;;;;;31.61;31.62;100687.47;146638;578;44032;-78
2022/08/10 06:19:21;;;;;;;;;10.75;9.50;;;;;31.41;31.30;100615.84;146639;607;44020;-77
2022/08/10 06:22:17;;;;;;;;;9.50;9.50;;;;;32.02;30.81;100683.25;146637;570;44913;-78
2022/08/10 06:25:12;;;;;;;;;10.75;7.75;;;;;32.26;30.82;100681.44;146639;666;44048;-78
2022/08/10 06:28:20;;;;;;;;;9.00;9.00;;;;;32.49;31.10;100680.53;146636;567;45913;-78
2022/08/10 06:31:15;;;;;;;;;8.50;8.50;;;;;32.47;30.50;100642.16;146634;587;44021;-77
2022/08/10 06:34:14;;;;;;;;;9.50;9.50;;;;;32.95;30.59;100686.69;146634;579;45915;-79
2022/08/10 06:37:21;;;;;;;;;10.50;10.00;;;;;33.17;29.83;100685.81;146640;595;44021;-78
2022/08/10 06:40:18;;;;;;;;;12.25;11.00;;;;;33.36;30.16;100684.06;146633;710;45914;-79
2022/08/10 06:43:20;;;;;;;;;9.75;8.25;;;;;33.48;30.22;100690.72;146639;570;44020;-78
2022/08/10 06:46:20;;;;;;;;;10.25;8.50;;;;;33.55;30.00;100684.13;146634;593;45012;-79
2022/08/10 06:49:16;;;;;;;;;7.50;7.50;;;;;33.59;29.42;100687.59;146636;573;45010;-79
2022/08/10 06:52:15;;;;;;;;;10.75;9.25;;;;;33.68;29.28;100700.63;146636;626;45915;-79
2022/08/10 06:55:17;;;;;;;;;10.75;8.50;;;;;33.72;29.63;100704.91;146638;572;44020;-78
2022/08/10 06:58:19;;;;;;;;;9.50;9.50;;;;;33.74;29.62;100711.06;146635;585;45012;-79
2022/08/10 07:01:29;;;;;;;;;11.00;11.00;;;;;32.99;30.75;100578.25;146627;604;45020;-77
2022/08/10 07:05:01;;;;;;;;;9.50;9.25;;;;;33.08;30.12;100580.47;146608;570;46014;-79
2022/08/10 07:08:06;;;;;;;;;11.25;11.25;;;;;33.87;29.48;100704.22;146619;606;45023;-81
2022/08/10 07:11:05;;;;;;;;;9.75;9.75;;;;;33.89;29.74;100709.50;146609;609;45914;-79
2022/08/10 07:14:08;;;;;;;;;12.25;10.00;;;;;33.90;29.59;100719.34;146620;681;45021;-79
2022/08/10 07:17:09;;;;;;;;;12.50;11.50;;;;;33.87;29.41;100723.03;146605;577;47914;-79
2022/08/10 07:20:05;;;;;;;;;11.25;10.00;;;;;33.91;29.36;100721.06;146613;683;45041;-83
2022/08/10 07:23:19;;;;;;;;;12.75;12.25;;;;;33.16;30.27;100590.91;146608;646;45915;-78
2022/08/10 07:26:17;;;;;;;;;12.50;12.50;;;;;34.08;29.95;100725.69;146616;592;45020;-79
2022/08/10 07:29:14;;;;;;;;;9.75;9.75;;;;;34.24;29.49;100726.75;146608;590;46017;-78
2022/08/10 07:32:17;;;;;;;;;11.00;10.75;;;;;34.36;29.62;100730.66;146606;577;45020;-77
2022/08/10 07:35:17;;;;;;;;;12.25;12.00;;;;;34.43;28.89;100722.22;146609;757;45915;-80
2022/08/10 07:38:13;;;;;;;;;9.75;9.75;;;;;34.51;28.58;100720.97;146612;712;45029;-78
2022/08/10 07:41:19;;;;;;;;;12.50;11.75;;;;;34.63;28.50;100729.34;146615;598;45914;-79
2022/08/10 07:44:26;;;;;;;;;10.25;10.00;;;;;34.74;28.21;100727.94;146611;575;45031;-77
2022/08/10 07:47:37;;;;;;;;;;;;;;;;;;;;;
2022/08/10 07:50:42;;;;;;;;;11.50;10.25;;;;;34.87;28.80;100721.03;146618;601;46010;-81
2022/08/10 07:53:56;;;;;;;;;12.00;11.00;;;;;34.11;28.94;100583.81;146606;640;46012;-77
2022/08/10 07:56:58;;;;;;;;;12.00;11.00;;;;;35.07;27.77;100720.03;146614;599;45021;-78
2022/08/10 08:00:15;;;;;;;;;11.50;10.50;;;;;35.16;27.69;100716.88;146608;578;45914;-79
2022/08/10 08:03:20;;;;;;;;;10.00;9.00;;;;;35.29;27.55;100719.81;146606;582;45020;-80
2022/08/10 08:06:19;;;;;;;;;10.00;9.00;;;;;35.41;28.18;100716.47;146614;575;45914;-80
2022/08/10 08:09:15;;;;;;;;;11.75;11.00;;;;;35.46;25.75;100700.06;146619;569;45020;-82
2022/08/10 08:12:14;;;;;;;;;9.25;9.25;;;;;35.59;26.50;100717.38;146608;633;45914;-77
2022/08/10 08:15:21;;;;;;;;;9.50;8.50;;;;;35.67;26.80;100711.53;146619;579;46014;-79
2022/08/10 08:18:20;;;;;;;;;8.00;7.75;;;;;35.74;26.06;100721.06;146616;577;45915;-77
2022/08/10 08:21:22;;;;;;;;;10.00;9.50;;;;;35.78;25.64;100720.81;146620;619;45021;-81
2022/08/10 08:24:21;;;;;;;;;10.00;9.00;;;;;35.82;25.78;100727.78;146613;619;45913;-80
2022/08/10 08:27:54;;;;;;;;;7.00;7.00;;;;;35.89;26.06;100724.75;146619;583;46010;-79
2022/08/10 08:30:52;;;;;;;;;8.50;8.50;;;;;36.05;26.04;100725.72;146615;570;45912;-77
2022/08/10 08:33:48;;;;;;;;;9.50;8.50;;;;;36.24;26.37;100723.72;146607;581;45020;-79
2022/08/10 08:36:49;;;;;;;;;8.75;8.75;;;;;36.42;26.22;100724.53;146614;629;46016;-79
2022/08/10 08:39:44;;;;;;;;;10.00;9.00;;;;;36.55;25.27;100731.97;146619;564;45020;-83
2022/08/10 08:43:39;;;;;;;;;10.50;10.50;;;;;35.86;27.50;100588.22;146612;706;45915;-79
2022/08/10 08:46:58;;;;;;;;;8.50;8.50;;;;;36.69;26.71;100723.91;146612;619;45049;-80
2022/08/10 08:50:17;;;;;;;;;9.25;9.25;;;;;35.95;26.18;100602.97;146608;617;45915;-78
2022/08/10 08:54:06;;;;;;;;;8.00;8.00;;;;;36.59;25.30;100722.72;146618;576;46010;-79
2022/08/10 08:57:44;;;;;;;;;10.25;10.25;;;;;36.45;27.16;100723.44;146612;614;47012;-79
2022/08/10 09:01:12;;;;;;;;;10.75;10.75;;;;;36.45;26.18;100734.25;146609;584;46010;-83
2022/08/10 09:04:47;;;;;;;;;12.00;10.00;;;;;36.46;24.57;100728.78;146635;590;44914;-79
2022/08/10 09:08:31;;;;;;;;;9.25;9.25;;;;;36.15;26.81;100664.84;146632;609;45014;-79
2022/08/10 09:12:12;;;;;;;;;9.00;9.00;;;;;35.86;24.79;100599.00;146636;573;44914;-78
2022/08/10 09:15:32;;;;;;;;;11.00;10.25;;;;;36.69;25.46;100732.88;146640;580;44047;-79
2022/08/10 09:18:55;;;;;;;;;9.00;8.75;;;;;36.72;24.84;100730.00;146636;572;45912;-79
2022/08/10 09:22:18;;;;;;;;;10.25;9.00;;;;;36.64;23.30;100728.72;146638;600;45010;-82
2022/08/10 09:25:41;;;;;;;;;9.50;9.50;;;;;36.48;25.24;100729.56;146634;616;45012;-80
2022/08/10 09:28:40;;;;;;;;;11.50;10.50;;;;;36.34;24.64;100718.66;146639;613;44021;-79
2022/08/10 09:31:47;;;;;;;;;11.25;11.00;;;;;36.16;24.20;100712.47;146635;576;45914;-82
2022/08/10 09:35:30;;;;;;;;;12.75;10.00;;;;;35.23;25.72;100575.44;146639;588;45014;-77
2022/08/10 09:39:25;;;;;;;;;12.25;10.50;;;;;35.39;25.03;100568.28;146636;565;45016;-77
2022/08/10 09:43:07;;;;;;;;;11.00;10.00;;;;;35.73;26.65;100579.91;146632;559;44021;-78
2022/08/10 09:46:51;;;;;;;;;9.50;9.00;;;;;36.02;25.25;100574.72;146635;581;45914;-80
2022/08/10 09:50:25;;;;;;;;;12.75;10.50;;;;;36.97;25.10;100706.94;146640;611;44021;-79
2022/08/10 09:54:03;;;;;;;;;;;;;;;;;;;;;
2022/08/10 09:57:44;;;;;;;;;11.25;11.00;;;;;36.56;25.50;100575.19;146640;597;45010;-79
2022/08/10 10:00:48;;;;;;;;;12.75;12.50;;;;;37.46;25.34;100705.91;146637;600;44912;-80
2022/08/10 10:03:54;;;;;;;;;9.75;7.00;;;;;37.53;25.17;100697.28;146612;603;46014;-79
2022/08/10 10:07:03;;;;;;;;;11.50;11.50;;;;;37.54;24.27;100696.34;146615;659;45914;-78
2022/08/10 10:10:25;;;;;;;;;9.00;9.00;;;;;37.52;25.69;100698.28;146612;586;45021;-73
2022/08/10 10:13:36;;;;;;;;;14.50;13.00;;;;;37.48;25.23;100693.12;146606;571;47914;-72
2022/08/10 10:17:03;;;;;;;;;9.50;9.50;;;;;37.54;25.11;100695.47;146606;694;45020;-78
2022/08/10 10:20:27;;;;;;;;;9.25;8.75;;;;;37.60;25.22;100695.06;146615;569;45912;-74
2022/08/10 10:24:08;;;;;;;;;;;;;;;;;;;;;
2022/08/10 10:27:25;;;;;;;;;8.50;8.50;;;;;37.66;23.72;100692.84;146609;572;45914;-77
2022/08/10 10:30:31;;;;;;;;;7.75;7.75;;;;;37.72;24.37;100691.59;146611;603;46010;-80
2022/08/10 10:34:03;;;;;;;;;10.25;9.50;;;;;37.72;24.34;100685.31;146613;565;45914;-78
2022/08/10 10:37:05;;;;;;;;;9.75;9.75;;;;;37.65;22.52;100685.72;146619;573;46014;-82
2022/08/10 10:40:05;;;;;;;;;9.50;8.25;;;;;37.57;23.03;100679.03;146615;565;45912;-79
2022/08/10 10:43:37;;;;;;;;;8.50;8.50;;;;;36.77;24.96;100551.44;146619;630;46020;-78
2022/08/10 10:46:51;;;;;;;;;9.00;8.25;;;;;37.59;24.87;100682.53;146614;676;45868;-68
2022/08/10 10:50:00;;;;;;;;;8.25;7.00;;;;;37.59;24.31;100690.66;146606;573;45021;-71
2022/08/10 10:53:46;;;;;;;;;10.00;9.00;;;;;36.99;23.34;100568.09;146613;635;45913;-80
2022/08/10 10:57:24;;;;;;;;;8.25;7.75;;;;;37.00;25.30;100560.84;146621;609;45021;-79
2022/08/10 11:00:21;;;;;;;;;8.25;7.25;;;;;37.80;23.68;100685.72;146614;573;45911;-79
2022/08/10 11:03:37;;;;;;;;;8.00;8.00;;;;;37.87;22.95;100668.13;146620;565;45030;-78
2022/08/10 11:07:16;;;;;;;;;8.50;8.50;;;;;37.95;22.64;100673.97;146615;600;45912;-78
2022/08/10 11:10:14;;;;;;;;;9.00;9.00;;;;;37.90;23.97;100676.91;146620;593;45022;-79
2022/08/10 11:13:51;;;;;;;;;9.50;9.00;;;;;37.91;23.01;100672.34;146616;590;45915;-75
2022/08/10 11:17:42;;;;;;;;;7.25;6.75;;;;;37.90;24.04;100662.50;146621;617;45022;-78
2022/08/10 11:21:17;;;;;;;;;9.00;8.75;;;;;37.27;23.78;100535.78;146615;608;46012;-78
2022/08/10 11:24:56;;;;;;;;;8.50;8.25;;;;;38.09;22.20;100648.69;146606;588;46010;-78
2022/08/10 11:28:17;;;;;;;;;7.75;7.75;;;;;37.73;21.27;100584.22;146615;569;46012;-77
2022/08/10 11:31:47;;;;;;;;;8.25;8.25;;;;;38.03;22.24;100663.50;146620;591;45022;-75
2022/08/10 11:35:06;;;;;;;;;7.00;6.50;;;;;38.00;21.62;100662.81;146615;569;46012;-77
2022/08/10 11:38:50;;;;;;;;;7.00;7.00;;;;;38.15;22.75;100640.16;146618;603;46010;-74
2022/08/10 11:42:30;;;;;;;;;10.75;8.00;;;;;37.70;25.32;100525.81;146615;582;46012;-79
2022/08/10 11:45:56;;;;;;;;;7.50;6.00;;;;;38.31;21.77;100640.03;146619;576;45030;-79
2022/08/10 11:49:30;;;;;;;;;9.25;9.25;;;;;38.28;22.71;100635.66;146616;611;45910;-78
2022/08/10 11:52:52;;;;;;;;;8.25;8.25;;;;;38.23;22.73;100637.84;146620;624;46008;-76
2022/08/10 11:55:52;;;;;;;;;7.25;6.25;;;;;38.19;20.97;100625.44;146615;575;45910;-76
2022/08/10 12:02:14;;;;;;;;;6.50;6.50;;;;;38.05;22.09;100629.06;146613;578;45910;-77
2022/08/10 12:05:38;;;;;;;;;6.00;6.00;;;;;38.11;20.37;100617.84;146617;623;45020;-77
2022/08/10 12:08:42;;;;;;;;;9.00;7.50;;;;;38.26;21.31;100631.34;146614;650;45910;-78
2022/08/10 12:11:39;;;;;;;;;7.00;7.00;;;;;38.38;20.41;100622.41;146621;582;45021;-78
2022/08/10 12:14:55;;;;;;;;;7.75;7.75;;;;;38.47;22.49;100612.81;146614;606;46012;-78
2022/08/10 12:18:03;;;;;;;;;10.00;8.75;;;;;38.56;20.97;100628.44;146620;570;45021;-77
2022/08/10 12:21:33;;;;;;;;;;;;;;;;;;;;;
2022/08/10 12:25:06;;;;;;;;;7.00;6.75;;;;;37.60;22.29;100486.78;146620;609;46008;-77
2022/08/10 12:28:15;;;;;;;;;10.00;9.00;;;;;38.20;19.40;100610.09;146616;575;45910;-76
2022/08/10 12:31:16;;;;;;;;;8.25;7.50;;;;;38.03;22.16;100600.34;146608;618;45044;-76
2022/08/10 12:34:48;;;;;;;;;7.50;7.00;;;;;37.99;21.70;100609.66;146615;612;45916;-78
2022/08/10 12:38:13;;;;;;;;;;;;;;;;;;;;;
2022/08/10 12:41:33;;;;;;;;;6.25;6.25;;;;;37.94;21.51;100599.13;146614;576;46012;-77
2022/08/10 12:44:57;;;;;;;;;7.50;7.00;;;;;37.96;20.86;100597.19;146621;611;45022;-78
2022/08/10 12:48:47;;;;;;;;;8.25;8.25;;;;;37.28;22.95;100476.19;146615;607;45913;-77
2022/08/10 12:51:55;;;;;;;;;6.25;6.25;;;;;38.10;21.72;100591.75;146619;627;45020;-77
2022/08/10 12:55:13;;;;;;;;;7.75;7.25;;;;;38.04;21.55;100584.03;146616;573;46012;-77
2022/08/10 12:58:18;;;;;;;;;8.25;8.00;;;;;37.85;19.74;100580.72;146621;610;45047;-77
2022/08/10 13:01:27;;;;;;;;;9.75;8.50;;;;;37.64;21.62;100574.91;146616;630;45915;-77
2022/08/10 13:04:42;;;;;;;;;7.50;6.25;;;;;37.55;21.03;100579.06;146607;630;45020;-77
2022/08/10 13:11:25;;;;;;;;;8.00;7.00;;;;;37.86;22.18;100563.56;146618;591;47008;-76
2022/08/10 13:14:47;;;;;;;;;6.50;6.50;;;;;37.97;21.14;100566.44;146615;594;45912;-78
2022/08/10 13:17:43;;;;;;;;;8.25;8.25;;;;;38.03;21.49;100567.88;146619;626;45023;-77
2022/08/10 13:20:42;;;;;;;;;7.00;7.00;;;;;38.08;20.81;100565.75;146614;570;46014;-77
2022/08/10 13:23:44;;;;;;;;;9.75;7.75;;;;;38.12;21.83;100568.13;146621;588;45021;-75
2022/08/10 13:27:01;;;;;;;;;6.50;6.50;;;;;38.09;21.14;100564.75;146614;580;45912;-77
2022/08/10 13:30:05;;;;;;;;;8.00;8.00;;;;;37.96;20.69;100564.72;146614;766;47010;-76
2022/08/10 13:33:07;;;;;;;;;7.00;6.75;;;;;37.82;20.49;100560.19;146613;601;45913;-78
2022/08/10 13:36:19;;;;;;;;;7.50;6.25;;;;;37.63;19.79;100546.94;146610;565;45020;-76
2022/08/10 13:39:21;;;;;;;;;7.25;6.00;;;;;37.51;21.07;100550.47;146615;616;46012;-75
2022/08/10 13:42:26;;;;;;;;;7.50;7.00;;;;;37.59;21.32;100550.84;146620;563;45020;-77
2022/08/10 13:45:24;;;;;;;;;7.00;7.00;;;;;37.53;20.28;100542.25;146614;565;46013;-76
2022/08/10 13:48:24;;;;;;;;;6.00;5.00;;;;;37.49;21.81;100546.13;146620;565;45020;-80
2022/08/10 13:51:31;;;;;;;;;7.50;7.25;;;;;37.47;21.88;100546.22;146614;565;45912;-74
2022/08/10 13:54:33;;;;;;;;;7.00;7.00;;;;;37.43;21.06;100531.97;146620;584;45021;-74
2022/08/10 13:57:42;;;;;;;;;9.50;8.25;;;;;37.34;21.59;100534.41;146615;646;45912;-76
2022/08/10 14:00:53;;;;;;;;;10.00;8.25;;;;;36.61;22.16;100419.16;146621;597;45037;-75
2022/08/10 14:03:50;;;;;;;;;7.75;7.25;;;;;37.44;21.03;100532.84;146635;638;45912;-77
2022/08/10 14:06:59;;;;;;;;;8.75;8.75;;;;;37.53;20.59;100531.44;146633;589;44021;-80
2022/08/10 14:10:05;;;;;;;;;7.25;6.00;;;;;37.48;19.97;100520.91;146636;576;45912;-78
2022/08/10 14:13:17;;;;;;;;;6.00;6.00;;;;;37.46;21.50;100524.69;146638;564;44032;-78
2022/08/10 14:16:22;;;;;;;;;9.00;8.25;;;;;36.71;21.71;100400.53;146634;569;45913;-78
2022/08/10 14:19:45;;;;;;;;;6.75;6.50;;;;;36.67;22.13;100391.75;146639;591;45020;-79
2022/08/10 14:22:50;;;;;;;;;6.25;5.00;;;;;37.42;19.01;100522.16;146638;710;44911;-77
2022/08/10 14:26:11;;;;;;;;;7.75;5.75;;;;;37.29;20.79;100521.19;146640;610;44020;-76
2022/08/10 14:29:22;;;;;;;;;6.25;6.00;;;;;36.53;20.71;100387.19;146637;575;45913;-78
2022/08/10 14:32:19;;;;;;;;;6.75;5.75;;;;;37.25;19.53;100516.06;146638;614;45010;-80
2022/08/10 14:35:14;;;;;;;;;5.50;5.50;;;;;37.11;18.40;100498.91;146636;632;45912;-75
2022/08/10 14:38:25;;;;;;;;;5.00;5.00;;;;;36.90;19.68;100497.50;146634;622;44021;-74
2022/08/10 14:41:35;;;;;;;;;6.75;6.75;;;;;36.80;20.15;100509.84;146638;619;44913;-78
2022/08/10 14:44:53;;;;;;;;;7.00;7.00;;;;;36.75;21.05;100508.28;146636;575;45021;-75
2022/08/10 14:47:50;;;;;;;;;6.50;6.50;;;;;36.77;19.23;100492.00;146636;566;45912;-79
2022/08/10 14:50:55;;;;;;;;;7.00;7.00;;;;;36.76;19.23;100495.63;146639;695;44021;-77
2022/08/10 14:53:56;;;;;;;;;4.75;4.75;;;;;36.72;21.18;100489.56;146636;574;45912;-71
2022/08/10 14:56:52;;;;;;;;;5.50;5.25;;;;;36.72;20.12;100481.47;146638;606;44020;-77
2022/08/10 14:59:48;;;;;;;;;8.50;6.75;;;;;36.74;20.60;100494.87;146639;574;44017;-77
2022/08/10 15:03:00;;;;;;;;;6.00;6.00;;;;;36.79;21.66;100491.88;146624;576;45020;-78